createdAt,value
2022-10-15T06:56:40.549Z,11.04
2022-10-15T06:59:17.773Z,11.00
2022-10-15T07:01:54.694Z,11.01
2022-10-15T07:04:31.772Z,11.03
2022-10-15T07:07:08.578Z,11.03
2022-10-15T07:09:47.168Z,11.05
2022-10-15T07:12:26.731Z,11.08
2022-10-15T07:15:04.142Z,11.11
2022-10-15T07:17:40.976Z,11.17
2022-10-15T07:20:21.737Z,11.21
2022-10-15T07:23:01.726Z,11.29
2022-10-15T07:25:44.114Z,11.34
2022-10-15T07:28:23.580Z,11.41
2022-10-15T07:31:05.887Z,11.45
2022-10-15T07:33:45.444Z,11.51
2022-10-15T07:36:23.658Z,11.56
2022-10-15T07:39:00.882Z,11.67
2022-10-15T07:41:38.046Z,11.72
2022-10-15T07:44:17.452Z,11.83
2022-10-15T07:46:54.570Z,11.90
2022-10-15T07:49:31.617Z,11.96
2022-10-15T07:52:08.969Z,12.02
2022-10-15T07:54:45.991Z,12.08
2022-10-15T07:57:26.437Z,12.13
2022-10-15T08:00:05.895Z,12.20
2022-10-15T08:02:49.187Z,12.21
2022-10-15T08:05:30.153Z,12.23
2022-10-15T08:08:08.564Z,12.31
2022-10-15T08:10:45.928Z,12.41
2022-10-15T08:13:23.686Z,12.44
2022-10-15T08:16:03.679Z,12.49
2022-10-15T08:18:41.242Z,12.52
2022-10-15T08:21:19.977Z,12.55
2022-10-15T08:23:57.378Z,12.59
2022-10-15T08:26:44.338Z,12.61
2022-10-15T08:29:21.567Z,12.61
2022-10-15T08:32:01.354Z,12.70
2022-10-15T08:34:40.996Z,12.73
2022-10-15T08:37:17.829Z,12.75
2022-10-15T08:39:55.016Z,12.83
2022-10-15T08:42:39.491Z,12.86
2022-10-15T08:45:21.229Z,12.90
2022-10-15T08:48:08.607Z,12.91
2022-10-15T08:50:53.972Z,12.94
2022-10-15T08:53:37.496Z,12.89
2022-10-15T08:56:20.973Z,12.95
2022-10-15T08:59:08.267Z,13.02
2022-10-15T09:01:54.371Z,13.08
2022-10-15T09:04:45.319Z,13.19
2022-10-15T09:07:35.861Z,13.26
2022-10-15T09:10:21.121Z,13.28
2022-10-15T09:13:05.133Z,13.38
2022-10-15T09:15:57.582Z,13.42
2022-10-15T09:18:39.269Z,13.48
2022-10-15T09:21:20.017Z,13.57
2022-10-15T09:24:01.753Z,13.67
2022-10-15T09:26:53.377Z,13.76
2022-10-15T09:29:37.121Z,13.85
2022-10-15T09:32:22.024Z,14.07
2022-10-15T09:35:12.756Z,14.23
2022-10-15T09:38:05.971Z,14.33
2022-10-15T09:41:01.592Z,14.44
2022-10-15T09:43:42.117Z,14.47
2022-10-15T09:46:19.190Z,14.51
2022-10-15T09:49:10.351Z,14.56
2022-10-15T09:51:55.846Z,14.60
2022-10-15T09:54:45.635Z,14.71
2022-10-15T09:57:25.739Z,14.75
2022-10-15T10:00:05.043Z,14.76
2022-10-15T10:03:09.129Z,14.79
2022-10-15T10:05:46.435Z,14.76
2022-10-15T10:08:27.716Z,14.79
2022-10-15T10:11:13.232Z,14.81
2022-10-15T10:13:57.331Z,14.84
2022-10-15T10:16:34.374Z,14.80
2022-10-15T10:19:18.545Z,14.79
2022-10-15T10:22:09.009Z,14.75
2022-10-15T10:24:46.323Z,14.71
2022-10-15T10:27:31.007Z,14.68
2022-10-15T10:30:12.572Z,14.64
2022-10-15T10:32:50.354Z,14.55
2022-10-15T10:35:30.606Z,14.54
2022-10-15T10:38:07.233Z,14.53
2022-10-15T10:40:44.313Z,14.52
2022-10-15T10:43:29.753Z,14.47
2022-10-15T10:46:13.100Z,14.48
2022-10-15T10:48:54.378Z,14.47
2022-10-15T10:51:32.205Z,14.45
2022-10-15T10:54:15.374Z,14.44
2022-10-15T10:56:54.070Z,14.43
2022-10-15T10:59:39.045Z,14.46
2022-10-15T11:02:16.804Z,14.49
2022-10-15T11:04:53.608Z,14.51
2022-10-15T11:07:42.518Z,14.54
2022-10-15T11:10:27.442Z,14.57
2022-10-15T11:13:26.438Z,14.59
2022-10-15T11:16:16.864Z,14.65
2022-10-15T11:19:19.150Z,14.67
2022-10-15T11:22:32.538Z,14.73
2022-10-15T11:25:24.761Z,14.74
2022-10-15T11:28:26.903Z,14.80
2022-10-15T11:31:16.436Z,14.83
2022-10-15T11:34:12.914Z,14.80
2022-10-15T11:37:11.182Z,14.88
2022-10-15T11:40:08.273Z,14.93
2022-10-15T11:42:59.907Z,14.93
2022-10-15T11:45:59.618Z,14.90
2022-10-15T11:48:54.430Z,14.98
2022-10-15T11:51:40.653Z,14.99
2022-10-15T11:54:30.567Z,14.99
2022-10-15T11:57:11.564Z,14.99
2022-10-15T11:59:56.441Z,15.07
2022-10-15T12:02:37.761Z,15.09
2022-10-15T12:05:27.864Z,15.16
2022-10-15T12:08:06.597Z,15.18
2022-10-15T12:11:11.372Z,15.23
2022-10-15T12:13:58.013Z,15.27
2022-10-15T12:16:45.374Z,15.31
2022-10-15T12:19:25.430Z,15.33
2022-10-15T12:22:14.384Z,15.35
2022-10-15T12:24:58.141Z,15.39
2022-10-15T12:27:39.335Z,15.44
2022-10-15T12:30:28.365Z,15.49
2022-10-15T12:33:29.070Z,15.60
2022-10-15T12:36:10.933Z,15.73
2022-10-15T12:39:05.913Z,15.81
2022-10-15T12:41:57.032Z,15.88
2022-10-15T12:44:38.741Z,16.05
2022-10-15T12:47:15.391Z,16.13
2022-10-15T12:50:07.730Z,16.33
2022-10-15T12:53:06.786Z,16.55
2022-10-15T12:55:46.558Z,16.76
2022-10-15T12:58:38.246Z,16.91
2022-10-15T13:01:54.012Z,16.94
2022-10-15T13:04:43.436Z,16.85
2022-10-15T13:07:20.991Z,16.75
2022-10-15T13:09:58.887Z,16.68
2022-10-15T13:12:39.064Z,16.58
2022-10-15T13:15:19.607Z,16.51
2022-10-15T13:17:59.360Z,16.49
2022-10-15T13:20:40.346Z,16.45
2022-10-15T13:23:32.785Z,16.46
2022-10-15T13:26:25.865Z,16.38
2022-10-15T13:29:05.721Z,16.34
2022-10-15T13:31:45.347Z,16.28
2022-10-15T13:34:32.711Z,16.24
2022-10-15T13:37:09.674Z,16.19
2022-10-15T13:39:47.098Z,16.16
2022-10-15T13:42:26.682Z,16.09
2022-10-15T13:45:18.619Z,16.06
2022-10-15T13:47:57.245Z,15.96
2022-10-15T13:50:36.310Z,15.93
2022-10-15T13:53:25.495Z,15.94
2022-10-15T13:56:05.245Z,15.86
2022-10-15T13:58:42.358Z,15.85
2022-10-15T14:01:24.350Z,15.87
2022-10-15T14:04:04.058Z,15.82
2022-10-15T14:06:42.276Z,15.81
2022-10-15T14:09:27.508Z,15.76
2022-10-15T14:12:05.584Z,15.74
2022-10-15T14:14:47.084Z,15.74
2022-10-15T14:17:29.822Z,15.70
2022-10-15T14:23:07.152Z,15.70
2022-10-15T14:25:44.741Z,15.69
2022-10-15T14:28:25.275Z,15.69
2022-10-15T14:31:03.643Z,15.71
2022-10-15T14:33:50.052Z,15.72
2022-10-15T14:36:31.502Z,15.74
2022-10-15T14:39:36.219Z,15.73
2022-10-15T14:42:34.430Z,15.75
2022-10-15T14:45:25.163Z,15.73
2022-10-15T14:48:05.906Z,15.74
2022-10-15T14:50:48.639Z,15.76
2022-10-15T14:53:31.368Z,15.74
2022-10-15T14:56:16.247Z,15.70
2022-10-15T14:58:58.585Z,15.64
2022-10-15T15:01:37.353Z,15.61
2022-10-15T15:04:40.724Z,15.65
2022-10-15T15:07:24.379Z,15.62
2022-10-15T15:10:01.488Z,15.56
2022-10-15T15:12:41.552Z,15.54
2022-10-15T15:15:21.458Z,15.53
2022-10-15T15:17:59.519Z,15.51
2022-10-15T15:20:36.443Z,15.48
2022-10-15T15:23:22.208Z,15.50
2022-10-15T15:25:59.695Z,15.47
2022-10-15T15:28:37.305Z,15.45
2022-10-15T15:31:19.786Z,15.47
2022-10-15T15:33:57.371Z,15.40
2022-10-15T15:36:34.745Z,15.40
2022-10-15T15:39:16.289Z,15.39
2022-10-15T15:41:53.061Z,15.40
2022-10-15T15:44:30.921Z,15.39
2022-10-15T15:47:08.536Z,15.38
2022-10-15T15:49:46.297Z,15.36
2022-10-15T15:52:23.814Z,15.31
2022-10-15T15:55:04.711Z,15.33
2022-10-15T15:57:42.722Z,15.32
2022-10-15T16:00:22.538Z,15.34
2022-10-15T16:03:00.941Z,15.29
2022-10-15T16:05:39.167Z,15.29
2022-10-15T16:08:17.003Z,15.29
2022-10-15T16:10:57.249Z,15.27
2022-10-15T16:13:34.502Z,15.22
2022-10-15T16:16:13.515Z,15.23
2022-10-15T16:18:51.583Z,15.23
2022-10-15T16:21:35.630Z,15.22
2022-10-15T16:24:13.375Z,15.24
2022-10-15T16:27:02.536Z,15.22
2022-10-15T16:29:41.121Z,15.20
2022-10-15T16:32:18.838Z,15.21
2022-10-15T16:34:55.619Z,15.19
2022-10-15T16:37:33.169Z,15.22
2022-10-15T16:40:13.103Z,15.22
2022-10-15T16:42:54.067Z,15.23
2022-10-15T16:45:31.319Z,15.21
2022-10-15T16:48:09.645Z,15.23
2022-10-15T16:50:46.402Z,15.19
2022-10-15T16:53:23.794Z,15.21
2022-10-15T16:56:05.273Z,15.23
2022-10-15T16:58:45.366Z,15.20
2022-10-15T17:01:25.750Z,15.24
2022-10-15T17:04:06.620Z,15.23
2022-10-15T17:06:45.708Z,15.21
2022-10-15T17:09:24.162Z,15.22
2022-10-15T17:12:02.003Z,15.23
2022-10-15T17:14:44.550Z,15.23
2022-10-15T17:17:23.706Z,15.22
2022-10-15T17:20:03.402Z,15.20
2022-10-15T17:22:41.794Z,15.17
2022-10-15T17:25:20.531Z,15.15
2022-10-15T17:27:58.263Z,15.16
2022-10-15T17:30:40.281Z,15.18
2022-10-15T17:33:18.832Z,15.15
2022-10-15T17:35:56.467Z,15.16
2022-10-15T17:38:34.608Z,15.10
2022-10-15T17:41:16.011Z,15.15
2022-10-15T17:43:56.576Z,15.12
2022-10-15T17:46:39.679Z,15.17
2022-10-15T17:49:19.683Z,15.12
2022-10-15T17:51:58.071Z,15.12
2022-10-15T17:54:35.616Z,15.10
2022-10-15T17:57:13.669Z,15.09
2022-10-15T17:59:52.786Z,15.10
2022-10-15T18:02:35.134Z,15.11
2022-10-15T18:05:13.140Z,15.08
2022-10-15T18:07:52.718Z,15.08
2022-10-15T18:10:30.843Z,15.05
2022-10-15T18:13:10.920Z,15.08
2022-10-15T18:15:53.590Z,15.09
2022-10-15T18:18:35.198Z,15.08
2022-10-15T18:21:18.042Z,15.08
2022-10-15T18:23:58.710Z,15.09
2022-10-15T18:26:36.414Z,15.06
2022-10-15T18:29:15.763Z,15.09
2022-10-15T18:31:57.619Z,15.08
2022-10-15T18:34:39.643Z,15.10
2022-10-15T18:37:16.534Z,15.09
2022-10-15T18:39:54.683Z,15.08
2022-10-15T18:42:32.021Z,15.09
2022-10-15T18:45:11.217Z,15.09
2022-10-15T18:47:48.400Z,15.08
2022-10-15T18:50:28.782Z,15.09
2022-10-15T18:53:06.086Z,15.08
2022-10-15T18:55:43.553Z,15.06
2022-10-15T18:58:20.671Z,15.05
2022-10-15T19:00:59.118Z,15.04
2022-10-15T19:03:36.732Z,15.02
2022-10-15T19:06:17.654Z,15.01
2022-10-15T19:09:02.209Z,14.99
2022-10-15T19:11:45.140Z,14.95
2022-10-15T19:14:23.284Z,14.91
2022-10-15T19:17:00.757Z,14.86
2022-10-15T19:19:39.370Z,14.85
2022-10-15T19:22:19.510Z,14.83
2022-10-15T19:24:56.800Z,14.75
2022-10-15T19:27:34.839Z,14.72
2022-10-15T19:30:13.280Z,14.69
2022-10-15T19:32:51.860Z,14.65
2022-10-15T19:35:28.930Z,14.62
2022-10-15T19:38:09.434Z,14.59
2022-10-15T19:40:49.417Z,14.56
2022-10-15T19:43:27.699Z,14.51
2022-10-15T19:46:08.198Z,14.49
2022-10-15T19:48:48.485Z,14.46
2022-10-15T19:51:28.094Z,14.42
2022-10-15T19:54:08.564Z,14.41
2022-10-15T19:56:46.113Z,14.37
2022-10-15T19:59:23.658Z,14.34
